Culloden, GA

5:58 PM EDT on July 28, 2014 (GMT -0400)
Thomaston-Upson County (KOPN) Elev 797 ft | 32.95 °N, 84.26 °W | Change Station

Current weather conditions updated 23 minutes ago

Clear
Clear
93 °F
Feels Like 96 °F
N
12
Wind Variable Wind from NW
Gusts 20 mph

Tomorrow is forecast to be Much Cooler than today.

Today
High -- | Low -- °F
--% Chance of Precip.
Yesterday
High -- | Low -- °F
Precip. -- in
6:47 AM 8:38 PM
Waxing Crescent, 3% visible
Pressure 29.90 in
Visibility 10.0 miles
Clouds Clear
Heat Index 96 °F
Dew Point 66 °F
Humidity 41%
Rainfall 0.00 in
Snow Depth Not available.
UV 5 out of 12
Pollen 5.70 out of 12
Ozone Good
PM2.5 Moderate
Flu Activity Not available.
METAR KOPN 282135Z AUTO 32010G17KT 10SM CLR 34/19 A2990 RMK AO2

More Conditions Fewer Conditions

Pressure 29.90 in
Visibility 10.0 miles
Clouds Clear
Heat Index 96 °F
Dew Point 66 °F
Humidity 41%
Rainfall 0.00 in
Snow Depth Not available.
UV 5 out of 12
Pollen 5.70 out of 12
Ozone Good
PM2.5 Moderate
Flu Activity Not available.
METAR KOPN 282135Z AUTO 32010G17KT 10SM CLR 34/19 A2990 RMK AO2

More Conditions Fewer Conditions

10-Day Weather Forecast

Almanac

Astronomy

Jul. 28, 2014 Rise Set
Actual Time 6:47 AM EDT 8:38 PM EDT
Civil Twilight 6:20 AM EDT 9:05 PM EDT
Nautical Twilight 5:47 AM EDT 9:38 PM EDT
Astronomical Twilight 5:12 AM EDT 10:12 PM EDT
Moon 8:20 AM EDT 9:29 PM EDT
Length of Visible Light 14h 44m
Length of Day
13h 50m
Tomorrow will be 1m 24s shorter.
Waxing Crescent, 3% of the Moon is Illuminated
Today
Waxing Crescent
Aug 3
First Quarter
Aug 10
Full
Aug 17
Last Quarter
Aug 25
New

Today's Extremes

State Highs State Lows

Community

WunderPhotos

Upload Photos

1,738,500 photos uploaded!

Nearby

Air Quality

  Air Quality AQ Index Pollutant
Current Moderate
PM2.5
Current Good
OZONE
Tuesday Good
OZONE

Snow Depth

Station Depth Elevation
No new snow has been reported.

Earthquake Activity

City Distance Mag. Time & Date
No recent earthquake activity has been reported nearby.
Minimum magnitude displayed is 2.5.

Coastal Water Temperatures

Place Temperature
No Stations Reporting

Nearby Weather Stations

Station Location Temp. Heat Index Dew Point Humidity Wind Precip. Elev Updated Type
Reynolds, GA 92.0 °F 108 °F 78 °F 64% South  at  4.0 mph - / hr 429 ft 5:57 PM EDT Normal
Potterville, Reynolds, GA 90.3 °F 104 °F 77 °F 66% WSW  at  2.0 mph 0.00 in / hr 420 ft 5:56 PM EDT Normal
WA4RG, Fort Valley, GA 89.2 °F 103 °F 78 °F 69% SSW  at  2.0 mph 0.00 in / hr 538 ft 5:58 PM EDT Rapid Fire
WD4JKH, Forsyth, GA 90.0 °F 95 °F 69 °F 50% WNW  at  0.2 mph 0.00 in / hr 709 ft 5:58 PM EDT Rapid Fire
Smarr, Forsyth, GA 94.8 °F 101 °F 70 °F 45% West  at  4.0 mph 0.00 in / hr 565 ft 5:58 PM EDT Rapid Fire

Show More Stations Show Fewer Stations